Flight Track Log - Related Links

Times and Time Zones

All times are in EDT time to prevent confusion due to time zone crossing. See the N770NC flight status page for this flight to view local times or setup timezone preferences in your user account.

Time Position Orientation Groundspeed Altitude Reporting Facility
EDT Latitude Longitude Course Direction KTS MPH feet Rate Location/Type
Wed 07:46:12 PM 34.6661 -92.2181 152° Southeast 235 270 2,800  Level Memphis Center
Wed 07:47:12 PM 34.6733 -92.1350 84° East 268 308 4,700 1,774 Climbing Memphis Center
Wed 07:48:07 PM 34.6892 -92.0469 78° East 323 372 6,200 2,250 Climbing Memphis Center
Wed 07:49:20 PM 34.7219 -91.9339 71° East 330 380 9,500 2,256 Climbing Memphis Center
Wed 07:50:20 PM 34.7319 -91.8178 84° East 325 374 11,200 1,550 Climbing Memphis Center
Wed 07:51:20 PM 34.7375 -91.6914 87° East 356 410 12,600 1,650 Climbing Memphis Center
Wed 07:52:20 PM 34.7556 -91.5578 81° East 392 451 14,500 1,750 Climbing Memphis Center
Wed 07:53:20 PM 34.7775 -91.4267 78° East 398 458 16,100 1,600 Climbing Memphis Center
Wed 07:54:20 PM 34.8058 -91.2778 77° East 398 458 17,700 1,550 Climbing Memphis Center
Wed 07:55:20 PM 34.8278 -91.1339 79° East 412 474 19,200 1,600 Climbing Memphis Center
Wed 07:56:20 PM 34.8514 -90.9922 78° East 417 480 20,900 1,450 Climbing Memphis Center
Wed 07:57:20 PM 34.8686 -90.8481 82° East 429 494 22,100 1,200 Climbing Memphis Center
Wed 07:58:20 PM 34.8900 -90.6964 80° East 440 506 23,300 1,200 Climbing Memphis Center
Wed 07:59:20 PM 34.9092 -90.5444 81° East 451 519 24,500 1,150 Climbing Memphis Center
Wed 08:00:20 PM 34.9303 -90.3875 81° East 456 525 25,600 1,150 Climbing Memphis Center
Wed 08:01:20 PM 34.9656 -90.2406 74° East 461 531 26,800 950 Climbing Memphis Center
Wed 08:02:20 PM 35.0069 -90.1036 70° East 454 522 27,500 700 Climbing Memphis Center
Wed 08:03:20 PM 35.0211 -89.9439 84° East 465 535 28,200 700 Climbing Memphis Center
Wed 08:04:20 PM 35.0183 -89.7714 91° East 490 564 28,900 400 Climbing Memphis Center
Wed 08:05:20 PM 34.9653 -89.5919 110° East 499 574 29,000 50 Climbing Memphis Center
Wed 08:06:20 PM 34.9161 -89.4328 111° Southeast 505 581 29,000  Level Memphis Center
Wed 08:07:20 PM 34.8856 -89.2686 103° East 494 568 29,000  Level Memphis Center
Wed 08:08:20 PM 34.8611 -89.1017 100° East 494 568 29,000  Level Memphis Center
Wed 08:09:20 PM 34.8386 -88.9350 99° East 494 568 29,000  Level Memphis Center
Wed 08:10:20 PM 34.8156 -88.7686 100° East 494 568 29,000  Level Memphis Center
Wed 08:11:20 PM 34.7947 -88.6197 100° East 500 575 29,000  Level Memphis Center
Wed 08:12:20 PM 34.7714 -88.4458 99° East 492 566 29,000  Level Memphis Center
Wed 08:13:20 PM 34.7478 -88.2819 100° East 486 559 29,000  Level Memphis Center
Wed 08:14:20 PM 34.7286 -88.1258 98° East 496 571 29,000  Level Memphis Center
Wed 08:15:20 PM 34.7067 -87.9622 99° East 496 571 29,000  Level Memphis Center
Wed 08:16:20 PM 34.6847 -87.8011 99° East 496 571 29,000  Level Memphis Center
Wed 08:17:20 PM 34.6644 -87.6353 98° East 491 565 29,000  Level Memphis Center
Wed 08:18:20 PM 34.6419 -87.4642 99° East 478 550 29,000  Level Memphis Center
Wed 08:19:32 PM 34.6203 -87.2672 98° East 492 566 29,000  Level Atlanta Center
Wed 08:20:32 PM 34.5972 -87.1022 100° East 487 560 29,000  Level Atlanta Center
Wed 08:21:32 PM 34.5817 -86.9681 98° East 487 560 29,000  Level Atlanta Center
Wed 08:22:32 PM 34.5481 -86.7978 103° East 481 554 29,000  Level Atlanta Center
Wed 08:23:32 PM 34.5142 -86.6353 104° East 481 554 29,000 -200 Level Atlanta Center
Wed 08:24:32 PM 34.4817 -86.4831 104° East 476 548 28,600 -700 Descending Atlanta Center
Wed 08:25:32 PM 34.4469 -86.3436 107° East 459 528 27,600 -1,000 Descending Atlanta Center
Wed 08:26:32 PM 34.4139 -86.2067 106° East 439 505 26,600 -950 Descending Atlanta Center
Wed 08:27:32 PM 34.4289 -86.0661 83° East 414 476 25,700 -900 Descending Atlanta Center
Wed 08:28:32 PM 34.4478 -85.9281 81° East 409 471 24,800 -850 Descending Atlanta Center
Wed 08:29:32 PM 34.3872 -85.7831 117° Southeast 402 463 24,000 -400 Descending Atlanta Center
Wed 08:30:32 PM 34.3283 -85.6714 123° Southeast 420 483 24,000 -1,050 Level Atlanta Center
Wed 08:31:32 PM 34.2714 -85.5419 118° Southeast 433 498 21,900 -2,400 Descending Atlanta Center
Wed 08:32:32 PM 34.2417 -85.4108 105° East 412 474 19,200 -2,550 Descending Atlanta Center
Wed 08:33:32 PM 34.2136 -85.2847 105° East 392 451 16,800 -2,200 Descending Atlanta Center
Wed 08:34:32 PM 34.1836 -85.1639 107° East 376 433 14,800 -1,350 Descending Atlanta Center
Wed 08:35:32 PM 34.1303 -85.0425 118° Southeast 366 421 14,100 -550 Descending Atlanta Center
Wed 08:36:32 PM 34.0581 -84.9564 135° Southeast 366 421 13,700 -650 Descending Atlanta Center
Wed 08:37:32 PM 33.9856 -84.8706 136° Southeast 360 414 12,800 -850 Descending Atlanta Center
Wed 08:38:32 PM 33.9131 -84.7872 136° Southeast 360 414 12,000 -381 Descending Atlanta Center
Wed 08:39:38 PM 33.8333 -84.7000 138° Southeast 352 405 12,000  Level Atlanta TRACON
Wed 08:40:38 PM 33.7667 -84.6167 134° Southeast 346 398 12,000 -100 Level Atlanta TRACON
Wed 08:41:38 PM 33.7167 -84.5333 126° Southeast 303 349 11,800 -842 Descending Atlanta TRACON
Wed 08:42:32 PM 33.7333 -84.4500 76° East 285 328 10,400 -1,737 Descending Atlanta TRACON
Wed 08:43:32 PM 33.7333 -84.3667 90° East 252 290 8,500 -2,100 Descending Atlanta TRACON
Wed 08:44:32 PM 33.7333 -84.2833 90° East 244 281 6,200 -1,714 Descending Atlanta TRACON
Wed 08:45:38 PM 33.7000 -84.2167 121° Southeast 226 260 4,900 -1,150 Descending Atlanta TRACON
Wed 08:46:32 PM 33.6667 -84.2333 203° Southwest 184 212 3,900 -1,053 Descending Atlanta TRACON
Wed 08:47:32 PM 33.6500 -84.2833 248° West 181 208 2,900 -950 Descending Atlanta TRACON
Wed 08:48:32 PM 33.6500 -84.3500 270° West 185 213 2,000 -900 Descending Atlanta TRACON

Login

Don't have an account? Register now (free) for customized features, flight alerts, and more!